Time;durP1;ratioP1;P1;durP2;ratioP2;P2;SDS_P1;SDS_P2;PMS_P1;PMS_P2;Temp;Humidity;BMP_temperature;BMP_pressure;BME280_temperature;BME280_humidity;BME280_pressure;Samples;Min_cycle;Max_cycle;Signal;HPM_P1;HPM_P2
2022/02/12 00:00:16;;;;;;;13.13;9.37;;;0.30;99.90;;;;;;5094246;28;20235;-60
2022/02/12 00:02:43;;;;;;;14.47;9.37;;;0.40;99.90;;;;;;5093902;28;20285;-60
2022/02/12 00:05:11;;;;;;;15.30;10.53;;;0.40;99.90;;;;;;5083407;28;20647;-61
2022/02/12 00:07:38;;;;;;;15.23;10.53;;;0.50;99.90;;;;;;5073681;28;20201;-61
2022/02/12 00:10:06;;;;;;;19.40;12.10;;;0.50;99.90;;;;;;5073434;28;20731;-63
2022/02/12 00:12:33;;;;;;;16.10;10.90;;;0.40;99.90;;;;;;5073573;28;20312;-60
2022/02/12 00:15:00;;;;;;;15.20;10.53;;;0.40;99.90;;;;;;5072986;28;20676;-61
2022/02/12 00:17:27;;;;;;;16.03;10.47;;;0.30;99.90;;;;;;5073250;28;20204;-64
2022/02/12 00:19:53;;;;;;;15.27;10.63;;;0.30;99.90;;;;;;5073450;28;20265;-59
2022/02/12 00:22:21;;;;;;;13.83;10.23;;;0.30;99.90;;;;;;5073183;28;20309;-63
2022/02/12 00:24:48;;;;;;;14.97;11.17;;;0.30;99.90;;;;;;5072919;28;20216;-62
2022/02/12 00:27:15;;;;;;;17.27;10.60;;;0.20;99.90;;;;;;5072696;28;20688;-62
2022/02/12 00:29:42;;;;;;;14.57;9.57;;;0.10;99.90;;;;;;5072907;28;20266;-63
2022/02/12 00:32:09;;;;;;;13.23;9.77;;;0.10;99.90;;;;;;5073248;28;20290;-61
2022/02/12 00:34:36;;;;;;;13.53;9.23;;;0.10;99.90;;;;;;5072596;28;20209;-60
2022/02/12 00:37:03;;;;;;;16.27;9.97;;;0.10;99.90;;;;;;5072647;28;20209;-62
2022/02/12 00:39:31;;;;;;;15.27;10.03;;;0.10;99.90;;;;;;5072956;28;20197;-63
2022/02/12 00:41:58;;;;;;;13.67;9.30;;;0.10;99.90;;;;;;5072277;28;20224;-61
2022/02/12 00:44:25;;;;;;;13.30;8.97;;;0.10;99.90;;;;;;5072682;28;20209;-64
2022/02/12 00:46:52;;;;;;;12.90;9.53;;;0.00;99.90;;;;;;5072894;28;20209;-62
2022/02/12 00:49:18;;;;;;;14.90;9.50;;;0.00;99.90;;;;;;5072632;28;20711;-62
2022/02/12 00:51:45;;;;;;;14.30;10.20;;;-0.10;99.90;;;;;;5072806;28;20278;-62
2022/02/12 00:54:12;;;;;;;12.23;8.90;;;-0.10;99.90;;;;;;5072714;28;20673;-62
2022/02/12 00:56:40;;;;;;;13.43;9.83;;;-0.20;99.90;;;;;;5072309;28;20303;-60
2022/02/12 00:59:07;;;;;;;17.20;9.30;;;-0.20;99.90;;;;;;5072674;28;20200;-61
2022/02/12 01:01:34;;;;;;;14.23;9.27;;;-0.20;99.90;;;;;;5071912;28;20233;-61
2022/02/12 01:04:01;;;;;;;15.17;9.83;;;-0.10;99.90;;;;;;5072633;28;20204;-62
2022/02/12 01:06:28;;;;;;;16.00;9.93;;;-0.20;99.90;;;;;;5072266;28;20208;-65
2022/02/12 01:08:55;;;;;;;17.40;9.40;;;-0.10;99.90;;;;;;5072488;28;20651;-61
2022/02/12 01:11:22;;;;;;;13.50;8.83;;;0.00;99.90;;;;;;5072540;28;20228;-61
2022/02/12 01:13:50;;;;;;;13.67;8.93;;;-0.10;99.90;;;;;;5072787;28;20213;-60
2022/02/12 01:16:17;;;;;;;11.43;8.63;;;-0.10;99.90;;;;;;5072125;28;20208;-60
2022/02/12 01:18:44;;;;;;;14.20;9.10;;;-0.10;99.90;;;;;;5072576;28;20228;-61
2022/02/12 01:21:11;;;;;;;13.17;9.07;;;-0.20;99.90;;;;;;5072402;28;20225;-60
2022/02/12 01:23:38;;;;;;;15.40;9.67;;;-0.10;99.90;;;;;;5072329;28;20208;-60
2022/02/12 01:26:05;;;;;;;13.63;9.00;;;0.00;99.90;;;;;;5072029;28;20201;-60
2022/02/12 01:28:32;;;;;;;14.23;9.80;;;0.00;99.90;;;;;;5072522;28;20282;-60
2022/02/12 01:31:00;;;;;;;12.07;9.07;;;-0.10;99.90;;;;;;5072384;28;20229;-60
2022/02/12 01:33:27;;;;;;;12.70;9.30;;;-0.20;99.90;;;;;;5072285;28;20254;-60
2022/02/12 01:35:54;;;;;;;15.57;9.10;;;-0.20;99.90;;;;;;5071377;28;20205;-61
2022/02/12 01:38:21;;;;;;;15.30;10.13;;;-0.10;99.90;;;;;;5072198;28;20204;-60
2022/02/12 01:40:48;;;;;;;13.07;9.67;;;0.00;99.90;;;;;;5072025;28;20300;-59
2022/02/12 01:43:15;;;;;;;11.43;9.10;;;0.00;99.90;;;;;;5072155;28;20677;-59
2022/02/12 01:45:43;;;;;;;12.23;8.83;;;0.10;99.90;;;;;;5071961;28;20288;-60
2022/02/12 01:48:11;;;;;;;14.43;9.37;;;0.20;99.90;;;;;;5072528;28;20208;-59
2022/02/12 01:50:38;;;;;;;13.50;9.40;;;0.20;99.90;;;;;;5072161;28;20681;-58
2022/02/12 01:53:04;;;;;;;11.67;8.53;;;0.20;99.90;;;;;;5072105;28;20672;-59
2022/02/12 01:55:31;;;;;;;13.37;8.97;;;0.20;99.90;;;;;;5072115;28;20624;-59
2022/02/12 01:57:58;;;;;;;14.07;8.83;;;0.30;99.90;;;;;;5072840;28;20213;-59
2022/02/12 02:00:26;;;;;;;13.07;8.80;;;0.30;99.90;;;;;;5072064;28;20292;-58
2022/02/12 02:02:52;;;;;;;16.73;8.67;;;0.40;99.90;;;;;;5071724;28;20328;-59
2022/02/12 02:05:20;;;;;;;16.27;10.87;;;0.40;99.90;;;;;;5071656;28;20205;-59
2022/02/12 02:07:47;;;;;;;15.23;9.67;;;0.40;99.90;;;;;;5071768;28;20201;-59
2022/02/12 02:10:15;;;;;;;15.10;9.57;;;0.40;99.90;;;;;;5072039;28;20228;-59
2022/02/12 02:12:42;;;;;;;14.07;9.47;;;0.40;99.90;;;;;;5072002;28;20225;-59
2022/02/12 02:15:10;;;;;;;14.53;8.43;;;0.50;99.90;;;;;;5071710;28;20258;-61
2022/02/12 02:17:36;;;;;;;14.20;8.83;;;0.40;99.90;;;;;;5071714;28;20211;-60
2022/02/12 02:20:06;;;;;;;15.73;8.77;;;0.30;99.90;;;;;;5071647;28;20664;-60
2022/02/12 02:22:49;;;;;;;12.57;8.40;;;0.30;99.90;;;;;;5071779;28;20256;-60
2022/02/12 02:25:16;;;;;;;14.57;9.00;;;0.40;99.90;;;;;;5071787;28;20272;-60
2022/02/12 02:27:42;;;;;;;15.60;10.23;;;0.40;99.90;;;;;;5071757;28;20239;-60
2022/02/12 02:30:13;;;;;;;16.60;8.60;;;0.40;99.90;;;;;;5071526;28;20234;-61
2022/02/12 02:32:41;;;;;;;12.87;9.33;;;0.40;99.90;;;;;;5071484;28;20780;-61
2022/02/12 02:35:09;;;;;;;12.33;8.27;;;0.40;99.90;;;;;;5071717;28;20236;-60
2022/02/12 02:37:36;;;;;;;11.13;8.03;;;0.40;99.90;;;;;;5071705;28;20234;-60
2022/02/12 02:40:12;;;;;;;16.33;11.20;;;0.30;99.90;;;;;;5071711;28;20296;-60
2022/02/12 02:42:40;;;;;;;17.37;11.13;;;0.10;99.90;;;;;;5071743;28;20228;-60
2022/02/12 02:45:08;;;;;;;14.53;9.83;;;0.00;99.90;;;;;;5071487;28;20255;-60
2022/02/12 02:47:40;;;;;;;15.43;9.53;;;-0.20;99.90;;;;;;5073125;28;20262;-60
2022/02/12 02:55:59;;;;;;;13.40;9.20;;;-0.30;99.90;;;;;;5075424;28;20221;-59
2022/02/12 02:58:25;;;;;;;12.17;8.93;;;-0.40;99.90;;;;;;5075405;28;20676;-59
2022/02/12 03:00:52;;;;;;;14.47;8.93;;;-0.40;99.90;;;;;;5075282;28;20292;-60
2022/02/12 03:03:19;;;;;;;12.40;8.43;;;-0.50;99.90;;;;;;5075717;28;20266;-60
2022/02/12 03:05:45;;;;;;;12.87;9.17;;;-0.50;99.90;;;;;;5074711;28;20209;-60
2022/02/12 03:08:12;;;;;;;13.03;9.67;;;-0.60;99.90;;;;;;5074998;28;20612;-61
2022/02/12 03:10:40;;;;;;;13.93;9.30;;;-0.60;99.90;;;;;;5074995;28;20225;-61
2022/02/12 03:13:07;;;;;;;13.53;9.73;;;-0.60;99.90;;;;;;5074998;28;20672;-61
2022/02/12 03:15:37;;;;;;;13.90;9.40;;;-0.60;99.90;;;;;;5074716;28;20229;-61
2022/02/12 03:18:04;;;;;;;13.97;9.13;;;-0.60;99.90;;;;;;5074955;28;20201;-61
2022/02/12 03:20:30;;;;;;;12.73;8.77;;;-0.60;99.90;;;;;;5074744;28;20794;-61
2022/02/12 03:22:57;;;;;;;12.60;9.20;;;-0.60;99.90;;;;;;5074778;28;20231;-61
2022/02/12 03:25:24;;;;;;;14.63;9.77;;;-0.60;99.90;;;;;;5074498;28;20205;-61
2022/02/12 03:27:53;;;;;;;13.10;8.47;;;-0.60;99.90;;;;;;5074750;28;20267;-60
2022/02/12 03:30:21;;;;;;;15.53;8.97;;;-0.60;99.90;;;;;;5075080;28;20307;-61
2022/02/12 03:32:47;;;;;;;11.80;8.03;;;-0.60;99.90;;;;;;5074604;28;20255;-61
2022/02/12 03:35:14;;;;;;;13.17;8.97;;;-0.60;99.90;;;;;;5074468;28;20205;-61
2022/02/12 03:37:41;;;;;;;12.77;8.70;;;-0.60;99.90;;;;;;5079458;28;20274;-60
2022/02/12 03:40:09;;;;;;;11.60;8.43;;;-0.60;99.90;;;;;;5079126;28;20201;-61
2022/02/12 03:42:36;;;;;;;13.33;8.40;;;-0.70;99.90;;;;;;5074695;28;20228;-61
2022/02/12 03:45:04;;;;;;;11.10;7.63;;;-0.70;99.90;;;;;;5074303;28;20201;-61
2022/02/12 03:47:31;;;;;;;13.83;8.40;;;-0.70;99.90;;;;;;5073860;28;20205;-60
2022/02/12 03:49:58;;;;;;;11.83;8.40;;;-0.70;99.90;;;;;;5074047;28;20673;-61
2022/02/12 03:52:25;;;;;;;11.73;8.20;;;-0.70;99.90;;;;;;5074530;28;20225;-61
2022/02/12 03:54:52;;;;;;;13.60;8.33;;;-0.70;99.90;;;;;;5074007;28;20212;-60
2022/02/12 03:57:19;;;;;;;13.93;8.60;;;-0.70;99.90;;;;;;5073888;28;20201;-61
2022/02/12 03:59:45;;;;;;;13.97;8.50;;;-0.70;99.90;;;;;;5073536;28;20219;-60
2022/02/12 04:02:13;;;;;;;14.50;8.33;;;-0.70;99.90;;;;;;5074251;28;20320;-61
2022/02/12 04:04:40;;;;;;;11.70;8.20;;;-0.70;99.90;;;;;;5074055;28;20258;-60
2022/02/12 04:07:07;;;;;;;11.63;7.90;;;-0.70;99.90;;;;;;5073753;28;20205;-61
2022/02/12 04:09:33;;;;;;;13.33;8.17;;;-0.70;99.90;;;;;;5073924;28;20235;-61
2022/02/12 04:12:00;;;;;;;12.63;8.60;;;-0.70;99.90;;;;;;5073871;28;20224;-61
2022/02/12 04:14:27;;;;;;;12.03;7.77;;;-0.80;99.90;;;;;;5074051;28;20212;-61
2022/02/12 04:16:53;;;;;;;13.47;8.07;;;-0.80;99.90;;;;;;5073556;28;20201;-61
2022/02/12 04:19:21;;;;;;;12.70;8.00;;;-0.90;99.90;;;;;;5073965;28;20212;-60
2022/02/12 04:21:48;;;;;;;11.57;7.67;;;-0.90;99.90;;;;;;5073585;28;20290;-59
2022/02/12 04:24:15;;;;;;;11.43;7.97;;;-0.90;99.90;;;;;;5073754;28;20205;-60
2022/02/12 04:26:41;;;;;;;15.67;8.60;;;-0.90;99.90;;;;;;5073215;28;20212;-61
2022/02/12 04:29:08;;;;;;;11.03;7.77;;;-1.00;99.90;;;;;;5073392;28;20209;-60
2022/02/12 04:31:35;;;;;;;13.77;8.20;;;-0.90;99.90;;;;;;5073146;28;20256;-62
2022/02/12 04:34:01;;;;;;;11.40;8.23;;;-0.90;99.90;;;;;;5073492;28;20209;-61
2022/02/12 04:36:29;;;;;;;10.87;8.27;;;-0.80;99.90;;;;;;5073078;28;20282;-61
2022/02/12 04:38:56;;;;;;;11.97;8.20;;;-0.90;99.90;;;;;;5073190;28;20205;-61
2022/02/12 04:41:23;;;;;;;12.83;8.83;;;-0.90;99.90;;;;;;5073622;28;20232;-61
2022/02/12 04:43:50;;;;;;;12.83;8.50;;;-1.00;99.90;;;;;;5072929;28;20201;-61
2022/02/12 04:46:16;;;;;;;15.03;9.03;;;-1.00;99.90;;;;;;5073060;28;20215;-61
2022/02/12 04:48:48;;;;;;;11.53;7.67;;;-1.00;99.90;;;;;;5073070;28;20209;-62
2022/02/12 04:51:15;;;;;;;19.13;14.67;;;-1.00;99.90;;;;;;5073103;28;20237;-60
2022/02/12 04:53:44;;;;;;;12.53;7.93;;;-1.00;99.90;;;;;;5073021;28;20580;-63
2022/02/12 04:56:11;;;;;;;15.07;8.27;;;-1.00;99.90;;;;;;5072798;28;20212;-61
2022/02/12 04:58:37;;;;;;;12.17;8.30;;;-1.00;99.90;;;;;;5072691;28;20209;-60
2022/02/12 05:01:04;;;;;;;14.73;8.77;;;-1.10;99.90;;;;;;5072920;28;20240;-61
2022/02/12 05:03:31;;;;;;;12.30;8.50;;;-1.10;99.90;;;;;;5072802;28;20473;-61
2022/02/12 05:05:57;;;;;;;12.13;7.97;;;-1.00;99.90;;;;;;5072380;28;20266;-60
2022/02/12 05:08:24;;;;;;;12.97;8.83;;;-1.00;99.90;;;;;;5072753;28;20205;-61
2022/02/12 05:10:52;;;;;;;11.37;8.30;;;-0.90;99.90;;;;;;5071444;28;20266;-61
2022/02/12 05:13:19;;;;;;;13.43;8.30;;;-0.90;99.90;;;;;;5072773;28;20212;-60
2022/02/12 05:15:45;;;;;;;17.70;10.00;;;-0.90;99.90;;;;;;5072438;28;20206;-60
2022/02/12 05:18:12;;;;;;;11.77;7.90;;;-0.90;99.90;;;;;;5072501;28;20209;-61
2022/02/12 05:20:39;;;;;;;12.50;7.43;;;-0.90;99.90;;;;;;5072403;28;20250;-61
2022/02/12 05:23:05;;;;;;;11.10;7.93;;;-0.90;99.90;;;;;;5072487;28;20217;-61
2022/02/12 05:25:32;;;;;;;13.07;8.83;;;-0.80;99.90;;;;;;5072054;28;20213;-61
2022/02/12 05:28:00;;;;;;;14.97;10.63;;;-0.90;99.90;;;;;;5072427;28;20255;-61
2022/02/12 05:30:27;;;;;;;15.30;9.13;;;-0.90;99.90;;;;;;5072257;28;20765;-61
2022/02/12 05:32:53;;;;;;;17.60;9.33;;;-0.90;99.90;;;;;;5072299;28;20225;-61
2022/02/12 05:35:20;;;;;;;19.73;13.17;;;-0.90;99.90;;;;;;5072022;28;20216;-59
2022/02/12 05:37:46;;;;;;;13.00;8.37;;;-0.90;99.90;;;;;;5072276;28;20632;-61
2022/02/12 05:40:13;;;;;;;13.47;8.10;;;-0.90;99.90;;;;;;5072044;28;20212;-61
2022/02/12 05:42:40;;;;;;;12.30;8.73;;;-0.90;99.90;;;;;;5072020;28;20645;-60
2022/02/12 05:45:09;;;;;;;14.67;8.90;;;-0.90;99.90;;;;;;5072018;28;20561;-61
2022/02/12 05:47:38;;;;;;;12.57;7.80;;;-0.90;99.90;;;;;;5071762;28;20592;-61
2022/02/12 05:50:06;;;;;;;11.20;7.43;;;-0.90;99.90;;;;;;5071927;28;20213;-61
2022/02/12 05:52:33;;;;;;;12.83;7.80;;;-0.90;99.90;;;;;;5071853;28;20240;-61
2022/02/12 05:54:59;;;;;;;16.17;9.50;;;-0.90;99.90;;;;;;5071816;28;20216;-61
2022/02/12 05:57:26;;;;;;;14.90;8.13;;;-0.80;99.90;;;;;;5071813;28;20620;-61
2022/02/12 05:59:53;;;;;;;13.03;7.60;;;-0.80;99.90;;;;;;5072041;28;20239;-61
2022/02/12 06:02:21;;;;;;;10.37;7.27;;;-0.80;99.90;;;;;;5071719;28;20236;-61
2022/02/12 06:04:48;;;;;;;12.43;7.10;;;-0.80;99.90;;;;;;5071868;28;20258;-61
2022/02/12 06:07:14;;;;;;;11.80;7.33;;;-0.80;99.90;;;;;;5071586;28;20216;-61
2022/02/12 06:09:41;;;;;;;14.77;8.37;;;-0.70;99.90;;;;;;5072235;28;20213;-60
2022/02/12 06:12:09;;;;;;;12.13;8.37;;;-0.80;99.90;;;;;;5071839;28;20278;-61
2022/02/12 06:14:35;;;;;;;14.20;8.67;;;-0.90;99.90;;;;;;5071703;28;20208;-61
2022/02/12 06:17:02;;;;;;;12.43;8.20;;;-1.00;99.90;;;;;;5071630;28;20209;-61
2022/02/12 06:19:30;;;;;;;12.80;7.60;;;-1.00;99.90;;;;;;5071810;28;20787;-60
2022/02/12 06:21:57;;;;;;;13.20;7.23;;;-1.10;99.90;;;;;;5071905;28;20225;-60
2022/02/12 06:24:24;;;;;;;14.53;8.27;;;-1.00;99.90;;;;;;5075983;28;20208;-61
2022/02/12 06:26:56;;;;;;;11.30;7.70;;;-1.00;99.90;;;;;;5075921;28;20254;-60
2022/02/12 06:29:23;;;;;;;13.63;7.93;;;-1.00;99.90;;;;;;5075809;28;20220;-61
2022/02/12 06:31:50;;;;;;;12.63;8.03;;;-0.90;99.90;;;;;;5075416;28;20233;-61
2022/02/12 06:34:18;;;;;;;14.33;8.63;;;-0.90;99.90;;;;;;5075454;28;20205;-61
2022/02/12 06:36:45;;;;;;;15.20;8.50;;;-0.90;99.90;;;;;;5075502;28;20201;-61
2022/02/12 06:39:12;;;;;;;15.20;8.03;;;-0.80;99.90;;;;;;5075620;28;20266;-61
2022/02/12 06:41:39;;;;;;;11.90;7.67;;;-0.80;99.90;;;;;;5075259;28;20221;-61
2022/02/12 06:44:06;;;;;;;12.27;7.60;;;-0.90;99.90;;;;;;5075383;28;20266;-60
2022/02/12 06:46:32;;;;;;;13.73;8.30;;;-0.90;99.90;;;;;;5075133;28;20217;-61
2022/02/12 06:48:59;;;;;;;10.97;7.30;;;-1.10;99.90;;;;;;5075024;28;20212;-61
2022/02/12 06:51:26;;;;;;;13.33;8.10;;;-1.10;99.90;;;;;;5075488;28;20256;-61
2022/02/12 06:53:54;;;;;;;13.20;7.87;;;-1.10;99.90;;;;;;5075368;28;20259;-60
2022/02/12 06:56:21;;;;;;;12.20;8.07;;;-1.00;99.90;;;;;;5075455;28;20611;-60
2022/02/12 06:58:47;;;;;;;13.53;8.23;;;-1.10;99.90;;;;;;5075185;28;20200;-60
2022/02/12 07:01:14;;;;;;;12.07;7.17;;;-1.10;99.90;;;;;;5074858;28;20232;-61
2022/02/12 07:03:41;;;;;;;12.40;7.20;;;-0.90;99.90;;;;;;5075093;28;20591;-62
2022/02/12 07:06:07;;;;;;;15.10;8.30;;;-0.70;99.90;;;;;;5075059;28;20205;-61
2022/02/12 07:08:34;;;;;;;13.97;8.80;;;-0.60;99.90;;;;;;5077088;28;20204;-60
2022/02/12 07:11:02;;;;;;;13.23;8.33;;;-0.50;99.90;;;;;;5074928;28;20286;-61
2022/02/12 07:13:29;;;;;;;16.07;10.43;;;-0.40;99.90;;;;;;5074944;28;20201;-61
2022/02/12 07:15:56;;;;;;;20.73;12.77;;;-0.30;99.90;;;;;;5074399;28;20209;-60
2022/02/12 07:18:23;;;;;;;25.13;14.30;;;0.20;99.90;;;;;;5074839;28;20208;-60
2022/02/12 07:20:50;;;;;;;25.00;13.80;;;0.90;99.90;;;;;;5074778;28;20292;-61
2022/02/12 07:23:16;;;;;;;20.27;13.43;;;1.70;99.90;;;;;;5074742;28;20209;-61
2022/02/12 07:25:43;;;;;;;18.27;10.37;;;2.60;99.90;;;;;;5074494;28;20631;-62
2022/02/12 07:28:11;;;;;;;17.07;10.53;;;3.00;99.90;;;;;;5074600;28;20235;-61
2022/02/12 07:30:38;;;;;;;12.20;7.63;;;3.00;99.90;;;;;;5074330;28;20232;-62
2022/02/12 07:33:05;;;;;;;12.27;6.57;;;2.80;99.90;;;;;;5074578;28;20208;-61
2022/02/12 07:35:32;;;;;;;10.90;6.37;;;2.50;99.90;;;;;;5073222;28;20405;-60
2022/02/12 07:37:59;;;;;;;10.37;7.00;;;2.10;99.90;;;;;;5074424;28;20278;-61
2022/02/12 07:40:27;;;;;;;117.70;55.37;;;1.90;99.90;;;;;;5074263;28;20665;-60
2022/02/12 07:42:54;;;;;;;10.67;7.53;;;1.60;99.90;;;;;;5074084;28;20244;-61
2022/02/12 07:45:24;;;;;;;9.87;6.27;;;1.50;99.90;;;;;;5074835;28;20823;-61
2022/02/12 07:47:54;;;;;;;13.00;7.60;;;1.50;99.90;;;;;;5073974;28;20665;-61
2022/02/12 07:50:21;;;;;;;11.97;6.97;;;1.40;99.90;;;;;;5074319;28;20241;-61
2022/02/12 07:52:48;;;;;;;8.40;6.37;;;1.30;99.90;;;;;;5073961;28;20235;-61
2022/02/12 07:55:15;;;;;;;10.83;6.60;;;1.30;99.90;;;;;;5074028;28;20211;-60
2022/02/12 07:57:43;;;;;;;13.20;6.87;;;1.20;99.90;;;;;;5073597;28;20204;-60
2022/02/12 08:00:10;;;;;;;11.40;6.97;;;1.20;99.90;;;;;;5074089;28;20619;-60
2022/02/12 08:02:38;;;;;;;12.03;6.70;;;1.20;99.90;;;;;;5073707;28;20641;-61
2022/02/12 08:05:06;;;;;;;9.60;6.83;;;1.20;99.90;;;;;;5073902;28;20216;-61
2022/02/12 08:07:37;;;;;;;11.07;7.00;;;1.00;99.90;;;;;;5073617;28;20213;-61
2022/02/12 08:11:22;;;;;;;13.20;7.57;;;1.00;99.90;;;;;;5073625;28;20240;-61
2022/02/12 08:12:52;;;;;;;13.83;8.17;;;1.00;99.90;;;;;;5073407;28;20233;-61
2022/02/12 08:15:19;;;;;;;18.47;10.37;;;1.20;99.90;;;;;;5073851;28;20204;-61
2022/02/12 08:17:47;;;;;;;14.17;7.70;;;1.30;99.90;;;;;;5073188;28;20207;-61
2022/02/12 08:20:14;;;;;;;13.47;7.37;;;1.50;99.90;;;;;;5073480;28;20251;-61
2022/02/12 08:22:41;;;;;;;11.57;7.50;;;1.70;99.90;;;;;;5073270;28;20229;-60
2022/02/12 08:25:09;;;;;;;12.67;7.40;;;1.80;99.90;;;;;;5073739;28;20211;-61
2022/02/12 08:27:35;;;;;;;17.20;7.77;;;1.90;99.90;;;;;;5073383;28;20232;-61
2022/02/12 08:30:03;;;;;;;10.83;6.77;;;2.10;99.90;;;;;;5073376;28;20342;-59
2022/02/12 08:32:29;;;;;;;10.50;6.43;;;2.10;99.90;;;;;;5073303;28;20290;-61
2022/02/12 08:34:57;;;;;;;11.07;6.13;;;2.20;99.90;;;;;;5073240;28;20208;-60
2022/02/12 08:37:24;;;;;;;11.33;5.80;;;2.20;99.90;;;;;;5072671;28;20209;-61
2022/02/12 08:39:52;;;;;;;17.77;6.53;;;2.30;99.90;;;;;;5073304;28;20577;-61
2022/02/12 08:42:20;;;;;;;11.87;5.03;;;2.40;99.90;;;;;;5072876;28;20604;-61
2022/02/12 08:44:47;;;;;;;13.13;6.50;;;2.30;99.90;;;;;;5072873;28;20259;-61
2022/02/12 08:47:14;;;;;;;9.53;5.53;;;2.30;99.90;;;;;;5072631;28;20213;-61
2022/02/12 08:49:41;;;;;;;9.07;5.00;;;2.40;99.90;;;;;;5072691;28;20637;-61
2022/02/12 08:52:10;;;;;;;10.57;5.43;;;2.50;99.90;;;;;;5072756;28;20619;-61
2022/02/12 08:54:38;;;;;;;11.60;5.17;;;2.50;99.90;;;;;;5072877;28;20216;-61
2022/02/12 08:57:05;;;;;;;14.77;4.97;;;2.50;99.90;;;;;;5072645;28;20823;-61
2022/02/12 08:59:32;;;;;;;10.07;4.90;;;2.40;99.90;;;;;;5072600;28;20208;-61
2022/02/12 09:01:59;;;;;;;11.70;4.50;;;2.40;99.90;;;;;;5086749;22;20224;-55
2022/02/12 09:04:25;;;;;;;9.63;4.30;;;2.50;99.90;;;;;;5064151;28;20205;-55
2022/02/12 09:06:52;;;;;;;11.37;5.03;;;2.50;99.90;;;;;;5072754;28;20262;-54
2022/02/12 09:09:20;;;;;;;13.47;5.00;;;2.60;99.90;;;;;;5072533;28;20205;-54
2022/02/12 09:11:47;;;;;;;7.90;3.97;;;2.70;99.90;;;;;;5072336;28;20246;-54
2022/02/12 09:14:14;;;;;;;10.80;4.37;;;2.80;99.90;;;;;;5072413;28;20334;-55
2022/02/12 09:16:41;;;;;;;11.03;5.03;;;2.80;99.90;;;;;;5072143;28;20208;-54
2022/02/12 09:19:09;;;;;;;11.83;5.10;;;2.80;99.90;;;;;;5072326;28;20684;-55
2022/02/12 09:21:36;;;;;;;10.97;5.20;;;3.00;99.90;;;;;;5072505;28;20216;-56
2022/02/12 09:24:03;;;;;;;11.23;5.20;;;3.20;99.90;;;;;;5072310;28;20244;-54
2022/02/12 09:26:33;;;;;;;9.23;4.80;;;3.30;99.90;;;;;;5071954;28;20718;-55
2022/02/12 09:29:00;;;;;;;12.53;5.23;;;3.40;99.90;;;;;;5072296;28;20697;-55
2022/02/12 09:31:27;;;;;;;11.63;5.10;;;3.50;99.90;;;;;;5072007;28;20728;-53
2022/02/12 09:33:54;;;;;;;10.13;4.63;;;3.60;99.90;;;;;;5072369;28;20212;-55
2022/02/12 09:36:21;;;;;;;8.33;4.80;;;3.80;99.90;;;;;;5071976;28;20211;-55
2022/02/12 09:38:48;;;;;;;11.40;4.30;;;3.80;99.90;;;;;;5072026;28;20209;-57
2022/02/12 09:41:15;;;;;;;9.30;4.80;;;3.90;99.90;;;;;;5072041;28;20235;-56
2022/02/12 09:43:44;;;;;;;9.00;4.30;;;4.00;99.90;;;;;;5071820;28;20780;-55
2022/02/12 09:47:01;;;;;;;9.07;4.90;;;4.10;99.90;;;;;;5071916;28;20254;-60
2022/02/12 09:49:28;;;;;;;9.43;4.47;;;4.20;99.90;;;;;;5030000;28;20214;-56
2022/02/12 09:51:56;;;;;;;7.87;4.33;;;4.30;99.90;;;;;;5063692;28;20232;-56
2022/02/12 09:54:22;;;;;;;7.97;4.13;;;4.50;99.90;;;;;;5072031;28;20211;-60
2022/02/12 09:56:50;;;;;;;11.43;4.23;;;4.50;99.90;;;;;;5057402;28;20293;-52
2022/02/12 09:59:18;;;;;;;9.70;4.20;;;4.70;99.90;;;;;;5056654;28;20596;-54
2022/02/12 10:01:45;;;;;;;9.60;4.43;;;4.80;99.90;;;;;;5051530;28;20237;-54
2022/02/12 10:04:16;;;;;;;11.73;4.63;;;4.90;99.90;;;;;;5071433;28;20205;-53
2022/02/12 10:06:45;;;;;;;12.93;5.20;;;5.00;99.90;;;;;;5071216;28;20209;-55
2022/02/12 10:09:12;;;;;;;10.13;4.80;;;5.10;99.90;;;;;;5040020;28;20213;-54
2022/02/12 10:11:41;;;;;;;7.70;4.53;;;5.20;99.90;;;;;;5060103;28;20241;-58
2022/02/12 10:14:09;;;;;;;11.97;4.83;;;5.50;99.90;;;;;;5051546;28;20209;-54
2022/02/12 10:16:51;;;;;;;10.30;3.77;;;5.70;99.90;;;;;;5051139;28;20212;-60
2022/02/12 10:19:18;;;;;;;9.50;4.40;;;5.70;99.90;;;;;;5051281;28;20233;-59
2022/02/12 10:22:04;;;;;;;11.10;3.90;;;5.80;99.90;;;;;;5051427;28;20279;-57
2022/02/12 10:24:54;;;;;;;7.10;3.80;;;5.90;99.90;;;;;;5070160;28;20215;-57
2022/02/12 10:27:23;;;;;;;7.97;3.67;;;6.00;99.90;;;;;;5071226;28;20266;-59
2022/02/12 10:29:51;;;;;;;8.63;3.30;;;6.00;99.90;;;;;;5071285;28;20213;-57
2022/02/12 10:32:22;;;;;;;7.17;3.97;;;6.10;99.90;;;;;;5058858;28;20731;-58
2022/02/12 10:34:50;;;;;;;7.80;3.70;;;6.20;99.90;;;;;;5062089;28;20731;-54
2022/02/12 10:37:20;;;;;;;8.10;3.37;;;6.30;99.90;;;;;;5067626;28;20216;-55
2022/02/12 10:39:53;;;;;;;6.30;3.50;;;6.40;99.90;;;;;;5070649;28;20676;-57
2022/02/12 10:42:21;;;;;;;9.93;3.23;;;6.50;99.90;;;;;;5070185;28;20231;-57
2022/02/12 10:44:48;;;;;;;7.83;3.53;;;6.50;99.90;;;;;;5071386;28;20235;-57
2022/02/12 10:47:15;;;;;;;7.60;3.30;;;6.70;99.90;;;;;;5071151;28;20216;-55
2022/02/12 10:49:44;;;;;;;7.67;3.17;;;6.70;99.90;;;;;;5071425;28;20205;-58
2022/02/12 10:52:10;;;;;;;11.67;4.50;;;6.70;99.90;;;;;;5070778;28;20225;-56
2022/02/12 10:54:42;;;;;;;11.57;3.67;;;6.90;99.90;;;;;;5070947;28;20255;-56
2022/02/12 10:57:08;;;;;;;7.30;3.57;;;7.00;99.90;;;;;;5065919;28;20631;-58
2022/02/12 10:59:36;;;;;;;7.47;3.40;;;7.10;99.90;;;;;;5058287;28;20635;-56
2022/02/12 11:02:07;;;;;;;9.53;3.07;;;7.20;99.90;;;;;;5052912;28;20287;-55
2022/02/12 11:04:35;;;;;;;9.17;4.60;;;7.30;99.90;;;;;;5067226;28;20309;-56
2022/02/12 11:07:05;;;;;;;11.30;3.50;;;7.50;99.90;;;;;;5050467;28;20677;-54
2022/02/12 11:09:32;;;;;;;6.77;3.50;;;7.70;99.90;;;;;;5054280;28;20190;-56
2022/02/12 11:12:03;;;;;;;10.27;4.03;;;7.90;99.90;;;;;;5054480;28;20225;-57
2022/02/12 11:14:32;;;;;;;9.93;3.60;;;8.00;99.90;;;;;;5071875;28;20295;-55
2022/02/12 11:17:02;;;;;;;9.27;3.37;;;8.10;99.90;;;;;;5074048;28;20201;-57
2022/02/12 11:19:29;;;;;;;8.97;3.40;;;8.10;99.90;;;;;;5074818;28;20590;-55
2022/02/12 11:21:57;;;;;;;6.93;3.40;;;8.30;99.90;;;;;;5074399;28;20287;-56
2022/02/12 11:24:36;;;;;;;9.03;3.10;;;8.30;99.90;;;;;;5054458;28;20669;-55
2022/02/12 11:27:16;;;;;;;8.90;3.30;;;8.30;99.90;;;;;;5054584;28;20217;-58
2022/02/12 11:29:44;;;;;;;6.47;2.93;;;8.50;99.90;;;;;;5054563;28;20304;-60
2022/02/12 11:32:13;;;;;;;7.60;3.27;;;8.60;99.90;;;;;;5054243;28;20257;-58
2022/02/12 11:35:17;;;;;;;8.40;3.30;;;8.80;99.90;;;;;;5054415;28;20296;-56
2022/02/12 11:37:46;;;;;;;5.57;2.90;;;9.00;99.90;;;;;;5034011;28;20202;-57
2022/02/12 11:40:17;;;;;;;8.10;3.03;;;9.00;99.90;;;;;;5059934;28;20213;-59
2022/02/12 11:42:46;;;;;;;6.70;2.63;;;9.10;99.90;;;;;;5054323;28;20240;-59
2022/02/12 11:45:26;;;;;;;9.30;3.07;;;9.20;99.90;;;;;;5054522;28;20210;-56
2022/02/12 11:48:13;;;;;;;5.40;2.40;;;9.20;99.90;;;;;;5054504;28;20209;-55
2022/02/12 11:50:45;;;;;;;5.37;2.57;;;9.20;99.90;;;;;;5070984;28;20205;-57
2022/02/12 11:53:35;;;;;;;5.77;2.50;;;9.20;99.90;;;;;;5073968;28;20233;-58
2022/02/12 11:56:09;;;;;;;6.37;2.50;;;9.30;99.90;;;;;;5074376;28;20209;-62
2022/02/12 11:59:09;;;;;;;7.00;2.63;;;9.30;99.90;;;;;;5074816;28;20683;-57
2022/02/12 12:01:57;;;;;;;7.17;2.70;;;9.30;99.90;;;;;;5073929;28;20271;-54
2022/02/12 12:04:25;;;;;;;5.97;2.50;;;9.30;99.90;;;;;;5070698;28;20205;-56
2022/02/12 12:07:08;;;;;;;8.00;2.50;;;9.40;99.90;;;;;;5073842;28;20251;-56
2022/02/12 12:09:37;;;;;;;6.03;2.60;;;9.50;99.90;;;;;;5074024;28;20660;-53
2022/02/12 12:12:20;;;;;;;6.77;3.00;;;9.60;99.90;;;;;;5073561;28;20232;-53
2022/02/12 12:14:47;;;;;;;3.93;2.40;;;9.50;99.90;;;;;;5074452;28;20244;-56
2022/02/12 12:17:15;;;;;;;6.97;2.60;;;9.60;99.90;;;;;;5073874;28;20204;-57
2022/02/12 12:19:43;;;;;;;5.33;2.57;;;9.60;99.90;;;;;;5073564;28;20296;-55
2022/02/12 12:22:12;;;;;;;5.13;2.77;;;9.60;99.90;;;;;;5073614;28;20225;-56
2022/02/12 12:24:40;;;;;;;7.10;2.83;;;9.60;99.90;;;;;;5073623;28;20572;-57
2022/02/12 12:27:10;;;;;;;6.63;3.07;;;9.60;99.50;;;;;;5073425;28;20201;-56
2022/02/12 12:32:24;;;;;;;6.27;2.40;;;9.50;98.30;;;;;;5073452;28;20738;-58
2022/02/12 12:34:52;;;;;;;6.63;2.40;;;9.60;97.60;;;;;;5073223;28;20702;-56
2022/02/12 12:37:19;;;;;;;5.20;2.20;;;9.70;97.90;;;;;;5072924;28;20209;-55
2022/02/12 12:39:46;;;;;;;3.70;2.13;;;9.80;97.20;;;;;;5073187;28;20213;-54
2022/02/12 12:42:16;;;;;;;4.33;1.80;;;9.90;96.50;;;;;;5073369;28;20224;-56
2022/02/12 12:44:57;;;;;;;2.97;1.93;;;10.00;95.70;;;;;;5073473;28;20254;-54
2022/02/12 12:47:23;;;;;;;3.57;2.00;;;10.00;95.00;;;;;;5072957;28;20298;-55
2022/02/12 12:49:55;;;;;;;4.87;1.70;;;9.70;95.30;;;;;;5073290;28;20208;-55
2022/02/12 12:52:23;;;;;;;4.57;2.20;;;9.50;95.10;;;;;;5072711;28;20256;-55
2022/02/12 12:54:55;;;;;;;4.80;2.10;;;9.50;95.00;;;;;;5073258;28;20712;-55
2022/02/12 12:57:28;;;;;;;3.83;1.70;;;9.60;95.30;;;;;;5072562;28;20273;-56